Latest Weather Observations for Moree

IDN60801

Issued at 7:12 pm EDT Friday 23 October 2020 (issued every 10 minutes, with the page automatically refreshed every 10 minutes)

About weather observations | Map of weather stations | Latest weather observations for NSW | Other Formats
Station Details ID: 053115 Name: MOREE AERO Lat: -29.49 Lon: 149.85 Height: 213.0 m
Data from the previous 72 hours. | See also: Recent months at Moree
Date/Time
EDT
Temp
°C
App
Temp
°C
Dew
Point
°C
Rel
Hum
%
Delta-T
°C
Wind Press
QNH
hPa
Press
MSL
hPa
Rain since
9am
mm
Dir  Spd
km/h
Gust
km/h
Spd
kts
Gust
kts
23/07:00pm 25.6 21.5 15.0 52 6.4 NE 30 37 16 20 1008.1 1007.4 0.0
23/06:40pm 27.3 23.2 16.0 50 7.0 NE 32 50 17 27 1008.4 1007.7 0.0
23/06:30pm 27.5 23.3 15.8 48 7.2 ENE 32 41 17 22 1008.3 1007.6 0.0
23/06:00pm 28.0 24.5 15.6 46 7.7 ENE 28 37 15 20 1007.6 1006.9 0.0
23/05:30pm 28.9 25.7 15.4 44 8.3 ENE 26 39 14 21 1007.7 1007.0 0.0
23/05:00pm 29.4 25.5 15.5 43 8.6 NE 30 39 16 21 1007.6 1006.9 0.0
23/04:39pm 29.7 25.9 15.8 43 8.7 NE 30 48 16 26 1007.7 1007.0 0.0
23/04:30pm 29.7 25.5 15.8 43 8.7 NE 32 48 17 26 1008.0 1007.3 0.0
23/04:27pm 29.9 25.9 15.2 41 9.1 NE 30 48 16 26 1008.1 1007.4 0.0
23/04:00pm 29.3 24.8 15.4 42 8.6 NE 33 48 18 26 1008.4 1007.7 0.0
23/03:30pm 29.6 24.7 15.3 41 8.8 NE 35 44 19 24 1008.8 1008.1 0.0
23/03:04pm 29.0 24.6 15.2 43 8.5 NE 32 52 17 28 1009.2 1008.5 0.0
23/03:00pm 29.4 25.3 15.9 44 8.4 NE 32 48 17 26 1009.3 1008.6 0.0
23/02:57pm 29.3 25.6 16.1 44 8.3 NE 30 48 16 26 1009.4 1008.7 0.0
23/02:30pm 28.7 23.6 14.9 43 8.5 NE 35 46 19 25 1009.9 1009.1 0.0
23/02:17pm 29.5 25.3 15.6 43 8.6 NE 32 52 17 28 1010.1 1009.3 0.0
23/02:00pm 29.3 24.0 15.4 42 8.6 NE 37 48 20 26 1010.4 1009.6 0.0
23/01:30pm 29.0 24.7 15.5 44 8.4 NE 32 50 17 27 1011.1 1010.4 0.0
23/01:27pm 28.1 24.1 15.1 45 8.0 NNE 30 50 16 27 1011.0 1010.2 0.0
23/01:00pm 28.3 23.6 15.9 47 7.7 NE 35 46 19 25 1011.6 1010.9 0.0
23/12:30pm 27.2 23.2 16.2 51 6.8 NE 32 44 17 24 1012.0 1011.3 0.0
23/12:00pm 27.3 23.0 16.9 53 6.5 NE 35 48 19 26 1012.8 1012.1 0.0
23/11:30am 25.9 21.8 16.5 56 5.8 NNE 33 43 18 23 1013.0 1012.3 0.0
23/11:06am 25.5 21.4 16.4 57 5.6 NE 33 52 18 28 1013.2 1012.5 0.0
23/11:00am 25.3 20.9 16.7 59 5.4 NE 35 46 19 25 1013.3 1012.6 0.0
23/10:30am 24.3 19.4 16.3 61 4.9 NNE 37 48 20 26 1013.7 1013.0 0.0
23/10:00am 23.9 19.3 16.2 62 4.7 NE 35 48 19 26 1013.9 1013.2 0.0
23/09:30am 22.7 18.1 16.0 66 4.1 NE 35 48 19 26 1014.0 1013.3 0.0
23/09:00am 22.5 18.3 15.6 65 4.2 NNE 32 41 17 22 1013.9 1013.2 0.0
23/08:30am 21.8 17.4 15.6 68 3.7 NE 33 48 18 26 1013.8 1013.1 0.0
23/08:00am 21.1 17.6 15.4 70 3.4 ENE 28 37 15 20 1013.7 1013.0 0.0
23/07:30am 19.8 16.6 15.2 75 2.7 ENE 26 33 14 18 1013.7 1013.0 0.0
23/07:00am 18.7 15.8 15.2 80 2.1 NE 24 32 13 17 1013.5 1012.8 0.0
23/06:30am 18.1 15.6 15.2 83 1.7 ENE 22 30 12 16 1013.1 1012.4 0.0
23/06:00am 17.9 15.9 15.0 83 1.7 ENE 19 26 10 14 1012.7 1012.0 0.0
23/05:30am 18.0 16.1 15.1 83 1.7 ENE 19 26 10 14 1012.5 1011.8 0.0
23/05:00am 18.1 16.2 15.2 83 1.7 NE 19 24 10 13 1012.4 1011.7 0.0
23/04:30am 17.8 15.5 14.7 82 1.8 NE 20 28 11 15 1012.2 1011.5 0.0
23/04:00am 18.0 14.9 14.5 80 2.0 NE 24 30 13 16 1012.1 1011.4 0.0
23/03:30am 18.3 15.2 14.4 78 2.3 NE 24 30 13 16 1012.2 1011.5 0.0
23/03:00am 18.9 16.2 14.6 76 2.5 NE 22 28 12 15 1012.7 1012.0 0.0
23/02:30am 19.1 17.4 14.6 75 2.6 ENE 17 22 9 12 1013.0 1012.3 0.0
23/02:00am 18.5 16.8 14.8 79 2.2 ENE 17 26 9 14 1013.1 1012.4 0.0
23/01:30am 18.8 16.6 14.9 78 2.3 ENE 20 28 11 15 1013.2 1012.5 0.0
23/01:00am 18.6 16.7 15.1 80 2.1 E 19 26 10 14 1013.5 1012.8 0.0
23/12:30am 19.4 18.1 14.9 75 2.7 E 15 19 8 10 1013.9 1013.2 0.0
23/12:00am 19.6 18.1 15.3 76 2.6 ENE 17 20 9 11 1013.9 1013.2 0.0
 
Date/Time
EDT
Temp
°C
App
Temp
°C
Dew
Point
°C
Rel
Hum
%
Delta-T
°C
Wind Press
QNH
hPa
Press
MSL
hPa
Rain since
9am
mm
Dir  Spd
km/h
Gust
km/h
Spd
kts
Gust
kts
22/11:30pm 20.0 18.9 15.2 74 2.9 E 15 20 8 11 1013.9 1013.2 0.0
22/11:00pm 21.2 20.8 15.3 69 3.5 NE 11 13 6 7 1014.2 1013.5 0.0
22/10:30pm 21.5 20.7 15.1 67 3.8 ENE 13 17 7 9 1013.9 1013.2 0.0
22/10:00pm 21.5 20.6 14.9 66 3.9 ENE 13 19 7 10 1013.9 1013.2 0.0
22/09:30pm 22.4 21.9 14.8 62 4.5 NE 11 13 6 7 1013.4 1012.7 0.0
22/09:00pm 22.8 22.7 14.9 61 4.7 NNE 9 13 5 7 1012.9 1012.2 0.0
22/08:30pm 23.3 23.3 15.1 60 4.9 ENE 9 11 5 6 1012.5 1011.8 0.0
22/08:00pm 24.0 23.7 14.4 55 5.7 NE 9 9 5 5 1012.0 1011.3 0.0
22/07:30pm 25.0 24.2 13.9 50 6.6 NNE 11 13 6 7 1011.7 1011.0 0.0
22/07:00pm 26.1 24.6 13.2 44 7.6 N 13 17 7 9 1011.4 1010.7 0.0
22/06:30pm 27.0 25.3 12.6 41 8.5 N 13 19 7 10 1011.1 1010.4 0.0
22/06:00pm 27.6 25.9 12.4 39 8.9 N 13 19 7 10 1010.9 1010.1 0.0
22/05:30pm 28.3 27.2 13.0 39 9.1 NNW 11 15 6 8 1010.8 1010.0 0.0
22/05:00pm 28.2 27.4 12.9 38 9.1 NNW 9 20 5 11 1010.9 1010.1 0.0
22/04:30pm 27.6 25.4 12.0 38 9.1 NNW 15 22 8 12 1010.9 1010.1 0.0
22/04:00pm 27.9 26.3 12.7 39 9.0 NNE 13 22 7 12 1011.0 1010.2 0.0
22/03:30pm 27.5 26.3 12.7 40 8.7 NW 11 19 6 10 1011.2 1010.5 0.0
22/03:00pm 27.8 26.0 13.3 40 8.6 N 15 26 8 14 1011.6 1010.9 0.0
22/02:30pm 26.9 25.6 13.6 44 7.9 NNE 13 28 7 15 1012.0 1011.3 0.0
22/02:00pm 26.8 25.0 14.5 46 7.4 NNE 17 24 9 13 1012.5 1011.8 0.0
22/01:30pm 25.7 24.1 13.9 48 7.0 NE 15 26 8 14 1012.8 1012.1 0.0
22/01:00pm 25.4 23.0 13.9 49 6.8 N 19 28 10 15 1013.2 1012.5 0.0
22/12:30pm 24.8 22.4 14.3 52 6.3 NNE 20 30 11 16 1013.4 1012.7 0.0
22/12:00pm 24.7 22.7 15.6 57 5.6 NE 20 32 11 17 1013.9 1013.2 0.0
22/11:30am 24.4 22.4 15.6 58 5.4 NNE 20 26 11 14 1014.5 1013.7 0.0
22/11:00am 23.4 21.4 15.5 61 4.8 NNE 20 28 11 15 1014.8 1014.0 0.0
22/10:30am 22.7 21.5 16.0 66 4.1 NNE 17 26 9 14 1015.3 1014.6 0.0
22/10:00am 20.9 19.0 15.2 70 3.4 NE 19 26 10 14 1015.5 1014.8 0.0
22/09:30am 18.8 17.5 14.9 78 2.3 ENE 15 17 8 9 1015.7 1015.0 0.0
22/09:00am 17.7 15.8 15.3 86 1.4 ENE 19 24 10 13 1015.5 1014.8 7.2
22/08:30am 17.4 16.1 14.9 85 1.5 ENE 15 19 8 10 1015.9 1015.2 7.2
22/08:00am 17.1 15.8 14.9 87 1.3 NE 15 19 8 10 1015.6 1014.9 7.2
22/07:30am 16.8 15.7 15.2 90 0.9 E 15 19 8 10 1015.5 1014.8 7.2
22/07:00am 16.7 15.2 15.4 92 0.8 E 17 22 9 12 1015.1 1014.3 7.2
22/06:30am 16.6 15.9 15.5 93 0.6 E 13 17 7 9 1014.6 1013.8 7.2
22/06:00am 16.6 15.9 15.5 93 0.6 ENE 13 17 7 9 1014.0 1013.3 7.2
22/05:30am 16.6 15.2 15.5 93 0.6 ENE 17 20 9 11 1013.6 1012.9 7.0
22/05:00am 16.5 15.4 15.4 93 0.6 ENE 15 20 8 11 1013.3 1012.6 6.2
22/04:30am 16.6 15.9 15.5 93 0.6 ENE 13 19 7 10 1013.1 1012.4 6.2
22/04:00am 16.6 14.2 15.5 93 0.6 ENE 22 28 12 15 1012.6 1011.9 5.8
22/03:35am 16.7 13.2 15.4 92 0.8 SSE 28 37 15 20 1013.9 1013.2 3.8
22/03:30am 16.7 13.8 15.2 91 0.9 S 24 37 13 20 1014.5 1013.7 3.2
22/03:25am 16.8 14.6 15.0 89 1.1 S 20 32 11 17 1014.8 1014.0 2.6
22/03:22am 16.9 14.7 14.9 88 1.2 S 20 32 11 17 1014.9 1014.1 2.2
22/03:00am 17.7 16.5 15.0 84 1.6 SSE 15 20 8 11 1014.6 1013.8 1.2
22/02:30am 17.2 15.6 15.0 87 1.3 SSE 17 19 9 10 1014.5 1013.7 1.2
22/02:00am 16.5 15.5 14.5 88 1.2 E 13 15 7 8 1014.1 1013.4 1.2
22/01:30am 16.8 15.4 14.4 86 1.4 E 15 19 8 10 1014.2 1013.5 1.2
22/01:00am 17.4 15.6 14.5 83 1.7 ENE 17 22 9 12 1014.1 1013.4 1.2
22/12:30am 17.5 16.2 14.8 84 1.6 ENE 15 20 8 11 1014.3 1013.6 1.2
22/12:00am 17.4 15.1 14.7 84 1.6 ENE 20 28 11 15 1014.0 1013.3 1.2
 
Date/Time
EDT
Temp
°C
App
Temp
°C
Dew
Point
°C
Rel
Hum
%
Delta-T
°C
Wind Press
QNH
hPa
Press
MSL
hPa
Rain since
9am
mm
Dir  Spd
km/h
Gust
km/h
Spd
kts
Gust
kts
21/11:30pm 17.4 15.6 14.5 83 1.7 ENE 17 28 9 15 1013.6 1012.9 1.2
21/11:00pm 17.7 16.0 14.8 83 1.7 ENE 17 22 9 12 1013.9 1013.2 1.2
21/10:30pm 17.8 16.2 14.9 83 1.7 E 17 22 9 12 1013.9 1013.2 1.2
21/10:00pm 18.2 16.6 15.1 82 1.8 NE 17 24 9 13 1013.7 1013.0 1.2
21/09:30pm 18.7 15.8 15.2 80 2.1 NNE 24 32 13 17 1013.6 1012.9 1.2
21/09:00pm 19.6 15.9 15.0 75 2.7 NNE 28 33 15 18 1013.3 1012.6 1.2
21/08:30pm 20.0 16.7 15.0 73 3.0 NNE 26 35 14 19 1012.9 1012.2 1.2
21/08:00pm 20.0 16.8 15.4 75 2.7 NE 26 33 14 18 1012.4 1011.7 1.2
21/07:30pm 20.1 15.8 15.3 74 2.9 ENE 32 41 17 22 1011.5 1010.8 1.0
21/07:00pm 22.8 19.4 13.6 56 5.4 NE 24 33 13 18 1012.3 1011.6 0.0
21/06:30pm 24.2 20.9 12.8 49 6.6 NNE 22 30 12 16 1011.9 1011.2 0.0
21/06:00pm 24.5 20.0 12.5 47 7.0 NE 28 33 15 18 1011.0 1010.2 0.0
21/05:30pm 25.9 21.7 12.4 43 7.9 NE 26 33 14 18 1011.1 1010.4 0.0
21/05:00pm 24.9 20.3 12.2 45 7.3 ENE 28 35 15 19 1011.4 1010.7 0.0
21/04:30pm 26.6 22.1 12.6 42 8.2 ENE 28 39 15 21 1011.5 1010.8 0.0
21/04:00pm 25.1 20.0 12.0 44 7.6 ENE 30 37 16 20 1012.1 1011.4 0.0
21/03:30pm 25.5 21.7 12.4 44 7.6 NE 24 35 13 19 1012.2 1011.5 0.0
21/03:00pm 26.0 22.6 12.5 43 7.9 NNE 22 30 12 16 1012.5 1011.8 0.0
21/02:30pm 26.1 22.6 12.2 42 8.1 N 22 32 12 17 1012.8 1012.1 0.0
21/02:00pm 26.6 22.8 12.3 41 8.3 NE 24 33 13 18 1013.1 1012.4 0.0
21/01:30pm 26.4 22.5 12.1 41 8.3 NNE 24 33 13 18 1013.6 1012.9 0.0
21/01:00pm 25.6 22.2 12.4 43 7.7 N 22 33 12 18 1014.1 1013.4 0.0
21/12:30pm 26.0 23.0 12.5 43 7.9 NNE 20 33 11 18 1014.3 1013.6 0.0
21/12:00pm 23.9 19.0 11.3 45 7.1 NNE 28 39 15 21 1014.9 1014.1 0.0
21/11:30am 24.6 19.4 11.5 44 7.5 NNE 30 39 16 21 1015.2 1014.5 0.0
21/11:00am 23.7 17.8 10.4 43 7.4 NE 32 41 17 22 1015.7 1015.0 0.0
21/10:30am 22.6 16.0 10.1 45 6.9 NE 35 44 19 24 1015.9 1015.2 0.0
21/10:00am 22.2 16.0 10.0 46 6.7 NE 33 43 18 23 1016.3 1015.6 0.0
21/09:30am 20.7 14.5 9.9 50 5.9 NE 33 44 18 24 1016.5 1015.8 0.0
21/09:00am 20.8 15.9 11.4 55 5.2 NE 28 37 15 20 1016.4 1015.7 0.0
21/08:30am 18.5 14.2 10.6 60 4.3 ENE 24 30 13 16 1016.4 1015.7 0.0
21/08:00am 17.9 13.7 11.0 64 3.8 ENE 24 30 13 16 1016.3 1015.6 0.0
21/07:30am 17.2 13.7 11.0 67 3.4 ENE 20 26 11 14 1016.1 1015.4 0.0
21/07:00am 16.9 13.9 10.7 67 3.3 ENE 17 22 9 12 1015.8 1015.1 0.0
21/06:30am 16.3 12.0 10.6 69 3.1 ENE 24 33 13 18 1015.5 1014.8 0.0
21/06:00am 16.2 12.2 10.5 69 3.1 ENE 22 35 12 19 1015.1 1014.3 0.0
21/05:30am 16.6 11.6 10.9 69 3.1 ENE 28 35 15 19 1014.9 1014.1 0.0
21/05:00am 16.6 12.7 10.9 69 3.1 ENE 22 32 12 17 1014.7 1013.9 0.0
21/04:30am 16.9 12.7 11.0 68 3.2 ENE 24 32 13 17 1014.5 1013.7 0.0
21/04:00am 17.0 12.8 11.1 68 3.2 NE 24 32 13 17 1014.3 1013.6 0.0
21/03:30am 17.3 13.5 11.1 67 3.4 NE 22 28 12 15 1014.3 1013.6 0.0
21/03:00am 17.5 13.3 11.1 66 3.5 NE 24 30 13 16 1014.5 1013.7 0.0
21/02:30am 17.4 14.0 11.2 67 3.4 NE 20 28 11 15 1014.3 1013.6 0.0
21/02:00am 17.4 14.1 11.0 66 3.5 NE 19 22 10 12 1014.2 1013.5 0.0
21/01:30am 17.8 14.9 10.9 64 3.8 ENE 17 24 9 13 1014.1 1013.4 0.0
21/01:00am 18.2 14.7 10.3 60 4.3 NE 19 24 10 13 1014.0 1013.3 0.0
21/12:30am 18.7 15.7 10.5 59 4.5 NE 17 20 9 11 1014.1 1013.4 0.0
21/12:00am 17.6 16.1 10.5 63 3.8 E 9 13 5 7 1013.7 1013.0 0.0
 
Date/Time
EDT
Temp
°C
App
Temp
°C
Dew
Point
°C
Rel
Hum
%
Delta-T
°C
Wind Press
QNH
hPa
Press
MSL
hPa
Rain since
9am
mm
Dir  Spd
km/h
Gust
km/h
Spd
kts
Gust
kts
20/11:30pm 18.1 16.1 10.0 59 4.3 E 11 13 6 7 1013.6 1012.9 0.0
20/11:00pm 19.1 17.6 10.4 57 4.7 E 9 13 5 7 1013.4 1012.7 0.0
20/10:30pm 19.2 18.1 10.5 57 4.7 ENE 7 9 4 5 1013.6 1012.9 0.0
20/10:00pm 20.1 19.6 10.8 55 5.1 E 4 11 2 6 1013.7 1013.0 0.0
20/09:30pm 20.4 19.5 10.5 53 5.4 NE 6 6 3 3 1013.7 1013.0 0.0
20/09:00pm 21.7 21.8 10.2 48 6.3 CALM 0 0 0 0 1013.6 1012.9 0.0
20/08:30pm 21.8 21.8 9.7 46 6.6 CALM 0 0 0 0 1013.3 1012.6 0.0
20/08:00pm 22.5 22.2 8.6 41 7.4 CALM 0 0 0 0 1013.1 1012.4 0.0
20/07:30pm 24.4 22.4 7.1 33 9.1 NW 7 9 4 5 1012.8 1012.1 0.0

Other formats

Comma delimited format used in spreadsheet applications
http://www.bom.gov.au/fwo/IDN60801/IDN60801.95527.axf

JavaScript Object Notation format (JSON) in row-major order
http://www.bom.gov.au/fwo/IDN60801/IDN60801.95527.json

Data quality

Most of these data are generated automatically and are frequently updated. Quality checks on data are not normally performed. It is possible for incorrect values to appear. Refer to information at About Latest Weather Observations and please check the disclaimer before using these data.